createdAt,value
2022-11-22T00:00:59.510Z,4.40
2022-11-22T00:03:27.124Z,4.30
2022-11-22T00:05:56.198Z,4.30
2022-11-22T00:08:23.959Z,3.53
2022-11-22T00:10:51.946Z,4.13
2022-11-22T00:13:21.092Z,4.30
2022-11-22T00:15:58.850Z,3.80
2022-11-22T00:18:26.515Z,3.33
2022-11-22T00:20:54.115Z,4.10
2022-11-22T00:23:23.668Z,4.40
2022-11-22T00:25:51.306Z,4.10
2022-11-22T00:28:18.981Z,4.10
2022-11-22T00:30:46.622Z,3.90
2022-11-22T00:33:14.220Z,4.20
2022-11-22T00:35:41.875Z,3.83
2022-11-22T00:38:09.530Z,5.00
2022-11-22T00:40:38.504Z,3.63
2022-11-22T00:43:06.155Z,3.37
2022-11-22T00:45:33.761Z,3.20
2022-11-22T00:48:01.394Z,2.90
2022-11-22T00:50:28.998Z,3.37
2022-11-22T00:52:56.602Z,3.50
2022-11-22T00:55:24.343Z,2.70
2022-11-22T00:57:53.357Z,3.33
2022-11-22T01:00:21.352Z,3.03
2022-11-22T01:02:48.990Z,3.00
2022-11-22T01:05:17.881Z,2.70
2022-11-22T01:07:45.783Z,3.00
2022-11-22T01:10:13.531Z,2.70
2022-11-22T01:12:41.196Z,2.83
2022-11-22T01:15:11.272Z,2.90
2022-11-22T01:17:38.975Z,2.87
2022-11-22T01:20:07.896Z,2.20
2022-11-22T01:22:35.587Z,1.93
2022-11-22T01:25:03.183Z,1.83
2022-11-22T01:27:30.823Z,1.97
2022-11-22T01:29:58.466Z,1.83
2022-11-22T01:32:27.773Z,1.50
2022-11-22T01:34:55.399Z,1.57
2022-11-22T01:37:23.124Z,1.47
2022-11-22T01:39:50.816Z,1.57
2022-11-22T01:42:18.476Z,1.70
2022-11-22T01:44:48.780Z,1.40
2022-11-22T01:47:21.201Z,1.40
2022-11-22T01:49:54.825Z,1.30
2022-11-22T01:52:26.798Z,1.50
2022-11-22T01:54:59.393Z,1.20
2022-11-22T01:57:32.399Z,1.60
2022-11-22T02:00:03.944Z,1.37
2022-11-22T02:02:31.919Z,1.27
2022-11-22T02:05:05.272Z,1.40
2022-11-22T02:07:39.535Z,1.63
2022-11-22T02:10:08.028Z,1.40
2022-11-22T02:12:37.450Z,1.20
2022-11-22T02:15:07.046Z,1.20
2022-11-22T02:17:35.152Z,1.10
2022-11-22T02:20:04.334Z,1.50
2022-11-22T02:22:37.355Z,1.20
2022-11-22T02:25:17.262Z,1.03
2022-11-22T02:27:46.659Z,1.30
2022-11-22T02:30:15.211Z,1.00
2022-11-22T02:32:42.891Z,1.10
2022-11-22T02:35:19.514Z,1.37
2022-11-22T02:37:48.471Z,1.37
2022-11-22T02:40:18.599Z,1.60
2022-11-22T02:42:51.696Z,1.20
2022-11-22T02:45:19.323Z,0.97
2022-11-22T02:47:46.936Z,1.30
2022-11-22T02:50:15.224Z,1.20
2022-11-22T02:52:42.869Z,1.30
2022-11-22T02:55:10.516Z,1.20
2022-11-22T02:57:38.193Z,1.30
2022-11-22T03:00:08.845Z,1.40
2022-11-22T03:02:36.528Z,1.07
2022-11-22T03:05:04.139Z,1.33
2022-11-22T03:07:31.833Z,1.20
2022-11-22T03:09:59.480Z,1.20
2022-11-22T03:12:27.180Z,1.20
2022-11-22T03:14:54.873Z,1.10
2022-11-22T03:17:23.875Z,1.10
2022-11-22T03:19:51.565Z,1.20
2022-11-22T03:22:19.235Z,1.10
2022-11-22T03:24:46.925Z,1.40
2022-11-22T03:27:14.614Z,1.20
2022-11-22T03:29:42.420Z,1.17
2022-11-22T03:32:10.157Z,1.20
2022-11-22T03:34:39.115Z,1.17
2022-11-22T03:37:06.858Z,1.30
2022-11-22T03:39:34.429Z,1.80
2022-11-22T03:42:02.035Z,1.13
2022-11-22T03:44:29.779Z,1.53
2022-11-22T03:46:57.591Z,1.10
2022-11-22T03:49:25.222Z,1.20
2022-11-22T03:51:54.257Z,1.30
2022-11-22T03:54:21.916Z,1.50
2022-11-22T03:56:49.568Z,1.50
2022-11-22T03:59:17.205Z,1.50
2022-11-22T04:01:44.993Z,1.40
2022-11-22T04:04:12.890Z,1.50
2022-11-22T04:06:40.791Z,1.50
2022-11-22T04:09:09.909Z,1.30
2022-11-22T04:11:37.688Z,1.47
2022-11-22T04:14:23.011Z,1.67
2022-11-22T04:16:50.657Z,1.20
2022-11-22T04:19:18.291Z,1.33
2022-11-22T04:21:44.943Z,1.40
2022-11-22T04:24:31.367Z,1.20
2022-11-22T04:26:59.792Z,1.23
2022-11-22T04:29:27.860Z,1.40
2022-11-22T04:32:13.922Z,1.50
2022-11-22T04:34:41.553Z,1.50
2022-11-22T04:37:09.204Z,1.70
2022-11-22T04:39:38.290Z,1.40
2022-11-22T04:42:23.927Z,1.40
2022-11-22T04:44:51.555Z,1.27
2022-11-22T04:47:34.219Z,1.37
2022-11-22T04:50:02.043Z,1.43
2022-11-22T04:52:47.243Z,1.40
2022-11-22T04:55:16.342Z,1.37
2022-11-22T04:57:44.028Z,1.70
2022-11-22T05:00:12.733Z,1.50
2022-11-22T05:02:40.472Z,1.30
2022-11-22T05:05:08.907Z,1.30
2022-11-22T05:07:36.648Z,1.30
2022-11-22T05:10:04.499Z,1.63
2022-11-22T05:12:33.492Z,1.70
2022-11-22T05:15:01.167Z,1.53
2022-11-22T05:17:28.815Z,1.50
2022-11-22T05:19:56.477Z,1.40
2022-11-22T05:22:44.112Z,1.50
2022-11-22T05:25:10.851Z,2.10
2022-11-22T05:27:40.144Z,1.50
2022-11-22T05:30:08.495Z,1.57
2022-11-22T05:32:36.417Z,1.73
2022-11-22T05:35:04.236Z,1.70
2022-11-22T05:37:32.027Z,1.53
2022-11-22T05:39:59.617Z,1.97
2022-11-22T05:42:27.283Z,1.97
2022-11-22T05:44:56.259Z,1.80
2022-11-22T05:47:23.967Z,2.00
2022-11-22T05:49:51.688Z,1.93
2022-11-22T05:52:19.347Z,2.17
2022-11-22T05:54:47.005Z,2.33
2022-11-22T05:57:14.640Z,1.97
2022-11-22T05:59:44.371Z,2.07
2022-11-22T06:02:13.663Z,2.20
2022-11-22T06:04:41.388Z,2.27
2022-11-22T06:07:10.457Z,2.00
2022-11-22T06:09:38.814Z,2.10
2022-11-22T06:12:06.993Z,2.33
2022-11-22T06:14:37.349Z,2.23
2022-11-22T06:17:09.333Z,2.03
2022-11-22T06:19:38.395Z,2.37
2022-11-22T06:22:06.137Z,2.73
2022-11-22T06:24:33.814Z,2.13
2022-11-22T06:27:01.525Z,1.77
2022-11-22T06:29:30.482Z,2.47
2022-11-22T06:32:03.124Z,2.27
2022-11-22T06:34:31.453Z,2.43
2022-11-22T06:37:00.460Z,2.10
2022-11-22T06:39:28.508Z,2.43
2022-11-22T06:41:56.362Z,2.33
2022-11-22T06:44:24.060Z,3.03
2022-11-22T06:46:51.776Z,2.40
2022-11-22T06:49:19.371Z,2.00
2022-11-22T06:51:47.058Z,2.47
2022-11-22T06:54:16.261Z,2.27
2022-11-22T06:56:46.975Z,1.80
2022-11-22T06:59:14.627Z,1.93
2022-11-22T07:01:42.383Z,2.53
2022-11-22T07:04:10.866Z,2.73
2022-11-22T07:06:40.013Z,2.67
2022-11-22T07:09:09.863Z,2.90
2022-11-22T07:11:39.074Z,2.73
2022-11-22T07:14:09.085Z,2.70
2022-11-22T07:16:38.095Z,2.87
2022-11-22T07:19:06.528Z,2.10
2022-11-22T07:21:34.285Z,2.47
2022-11-22T07:24:01.955Z,2.63
2022-11-22T07:26:29.508Z,2.43
2022-11-22T07:28:58.625Z,2.43
2022-11-22T07:31:26.240Z,2.27
2022-11-22T07:33:53.886Z,2.10
2022-11-22T07:36:22.856Z,3.20
2022-11-22T07:38:51.696Z,2.97
2022-11-22T07:41:21.961Z,3.57
2022-11-22T07:43:49.648Z,2.70
2022-11-22T07:46:23.530Z,3.10
2022-11-22T07:48:51.312Z,2.43
2022-11-22T07:51:19.336Z,3.00
2022-11-22T07:53:47.165Z,2.30
2022-11-22T07:56:15.318Z,2.47
2022-11-22T07:58:43.191Z,2.47
2022-11-22T08:01:12.889Z,3.50
2022-11-22T08:03:42.266Z,3.60
2022-11-22T08:06:13.288Z,4.00
2022-11-22T08:08:41.013Z,2.90
2022-11-22T08:11:09.057Z,2.60
2022-11-22T08:13:37.647Z,2.47
2022-11-22T08:16:08.425Z,2.13
2022-11-22T08:18:37.296Z,2.57
2022-11-22T08:21:11.283Z,3.27
2022-11-22T08:23:39.839Z,2.70
2022-11-22T08:26:09.363Z,3.57
2022-11-22T08:28:37.021Z,3.83
2022-11-22T08:31:06.515Z,3.57
2022-11-22T08:33:34.206Z,4.43
2022-11-22T08:36:02.226Z,3.20
2022-11-22T08:38:31.304Z,2.70
2022-11-22T08:40:59.038Z,2.33
2022-11-22T08:43:26.909Z,2.60
2022-11-22T08:45:55.828Z,2.33
2022-11-22T08:48:23.590Z,2.40
2022-11-22T08:50:52.643Z,2.10
2022-11-22T08:53:20.412Z,2.07
2022-11-22T08:55:49.916Z,1.67
2022-11-22T08:58:17.584Z,2.10
2022-11-22T09:00:45.456Z,1.87
2022-11-22T09:03:13.395Z,1.47
2022-11-22T09:08:31.301Z,1.73
2022-11-22T09:11:05.136Z,1.83
2022-11-22T09:13:33.120Z,1.67
2022-11-22T09:16:03.674Z,1.40
2022-11-22T09:18:31.568Z,1.23
2022-11-22T09:21:00.381Z,1.63
2022-11-22T09:23:28.427Z,1.47
2022-11-22T09:25:59.709Z,1.33
2022-11-22T09:28:29.025Z,1.83
2022-11-22T09:31:01.385Z,1.70
2022-11-22T09:33:29.164Z,2.00
2022-11-22T09:36:01.173Z,2.27
2022-11-22T09:38:29.114Z,1.77
2022-11-22T09:40:57.168Z,1.90
2022-11-22T09:43:38.105Z,2.03
2022-11-22T09:46:28.388Z,1.63
2022-11-22T09:49:22.100Z,1.40
2022-11-22T09:51:54.623Z,1.60
2022-11-22T09:54:26.709Z,1.70
2022-11-22T09:56:59.735Z,1.87
2022-11-22T09:59:32.610Z,1.47
2022-11-22T10:02:17.678Z,1.67
2022-11-22T10:04:53.025Z,1.57
2022-11-22T10:07:25.659Z,1.50
2022-11-22T10:10:01.405Z,1.70
2022-11-22T10:12:37.277Z,2.10
2022-11-22T10:15:14.148Z,1.90
2022-11-22T10:17:55.148Z,1.90
2022-11-22T10:20:24.470Z,1.10
2022-11-22T10:22:52.719Z,1.20
2022-11-22T10:25:22.213Z,1.90
2022-11-22T10:27:57.682Z,1.90
2022-11-22T10:30:35.937Z,2.30
2022-11-22T10:33:11.924Z,2.27
2022-11-22T10:35:59.117Z,1.97
2022-11-22T10:38:42.426Z,1.30
2022-11-22T10:41:27.136Z,1.60
2022-11-22T10:44:07.766Z,1.37
2022-11-22T10:46:43.209Z,1.20
2022-11-22T10:49:18.754Z,1.10
2022-11-22T10:51:51.034Z,1.70
2022-11-22T10:54:24.281Z,1.03
2022-11-22T10:57:00.764Z,1.87
2022-11-22T10:59:51.208Z,1.27
2022-11-22T11:02:42.577Z,1.50
2022-11-22T11:05:15.797Z,1.20
2022-11-22T11:07:48.605Z,1.10
2022-11-22T11:10:27.818Z,1.00
2022-11-22T11:13:06.004Z,1.17
2022-11-22T11:15:38.889Z,1.50
2022-11-22T11:18:15.526Z,1.50
2022-11-22T11:20:47.628Z,1.83
2022-11-22T11:23:16.457Z,1.43
2022-11-22T11:25:46.201Z,1.43
2022-11-22T11:28:19.522Z,1.27
2022-11-22T11:30:49.685Z,1.27
2022-11-22T11:33:26.405Z,0.80
2022-11-22T11:35:57.548Z,0.80
2022-11-22T11:38:30.597Z,0.80
2022-11-22T11:40:58.392Z,0.90
2022-11-22T11:43:26.691Z,1.00
2022-11-22T11:45:54.312Z,0.80
2022-11-22T11:48:31.273Z,1.13
2022-11-22T11:51:08.798Z,0.70
2022-11-22T11:53:36.872Z,0.93
2022-11-22T11:56:31.364Z,0.90
2022-11-22T11:59:01.002Z,0.73
2022-11-22T12:01:28.666Z,1.00
2022-11-22T12:03:59.668Z,1.03
2022-11-22T12:06:31.961Z,1.00
2022-11-22T12:09:01.198Z,0.80
2022-11-22T12:11:37.340Z,1.17
2022-11-22T12:14:19.935Z,2.70
2022-11-22T12:16:52.052Z,0.83
2022-11-22T12:19:25.886Z,0.90
2022-11-22T12:22:02.597Z,0.80
2022-11-22T12:27:24.657Z,0.80
2022-11-22T12:29:53.981Z,0.90
2022-11-22T12:32:27.291Z,0.80
2022-11-22T12:35:01.221Z,0.80
2022-11-22T12:37:32.643Z,0.70
2022-11-22T12:40:06.656Z,0.87
2022-11-22T12:42:42.580Z,0.73
2022-11-22T12:45:14.711Z,0.73
2022-11-22T12:47:46.526Z,0.93
2022-11-22T12:48:23.138Z,0.90
2022-11-22T12:50:21.828Z,0.77
2022-11-22T12:52:56.556Z,0.57
2022-11-22T12:55:27.444Z,0.70
2022-11-22T12:58:03.112Z,0.70
2022-11-22T13:00:36.724Z,0.80
2022-11-22T13:03:12.496Z,1.37
2022-11-22T13:05:49.086Z,0.70
2022-11-22T13:08:20.145Z,0.80
2022-11-22T13:10:51.977Z,1.00
2022-11-22T13:13:25.573Z,0.63
2022-11-22T13:15:55.446Z,1.30
2022-11-22T13:18:26.810Z,1.10
2022-11-22T13:21:04.238Z,1.03
2022-11-22T13:23:49.988Z,1.07
2022-11-22T13:26:24.543Z,0.77
2022-11-22T13:28:52.878Z,0.80
2022-11-22T13:31:21.108Z,0.90
2022-11-22T13:33:57.711Z,1.00
2022-11-22T13:36:41.927Z,0.90
2022-11-22T13:39:16.926Z,0.70
2022-11-22T13:41:53.225Z,0.80
2022-11-22T13:44:49.821Z,0.80
2022-11-22T13:47:37.934Z,0.80
2022-11-22T13:50:38.641Z,0.60
2022-11-22T13:53:24.210Z,1.07
2022-11-22T13:55:52.332Z,1.20
2022-11-22T13:58:52.765Z,0.90
2022-11-22T14:01:57.400Z,1.13
2022-11-22T14:04:43.222Z,1.20
2022-11-22T14:07:28.381Z,1.03
2022-11-22T14:09:59.241Z,0.80
2022-11-22T14:12:34.402Z,0.80
2022-11-22T14:15:21.686Z,0.90
2022-11-22T14:18:01.505Z,1.10
2022-11-22T14:20:44.221Z,0.97
2022-11-22T14:23:24.195Z,0.70
2022-11-22T14:26:05.987Z,0.80
2022-11-22T14:29:00.324Z,0.83
2022-11-22T14:31:30.506Z,0.90
2022-11-22T14:34:19.745Z,0.93
2022-11-22T14:37:07.895Z,1.07
2022-11-22T14:40:04.433Z,1.13
2022-11-22T14:42:55.885Z,1.17
2022-11-22T14:45:29.011Z,1.30
2022-11-22T14:48:04.186Z,1.17
2022-11-22T14:50:35.152Z,0.90
2022-11-22T14:53:16.359Z,1.20
2022-11-22T14:55:44.310Z,1.33
2022-11-22T14:58:19.104Z,1.07
2022-11-22T15:01:05.522Z,1.10
2022-11-22T15:09:10.832Z,1.70
2022-11-22T15:09:19.647Z,1.40
2022-11-22T15:10:00.976Z,2.43
2022-11-22T15:12:50.701Z,1.70
2022-11-22T15:57:26.222Z,2.10
2022-11-22T15:59:55.744Z,1.93
2022-11-22T16:02:25.808Z,1.80
2022-11-22T16:06:05.693Z,2.93
2022-11-22T16:07:48.482Z,2.33
2022-11-22T16:10:20.751Z,2.13
2022-11-22T16:12:48.529Z,2.60
2022-11-22T16:15:29.524Z,2.73
2022-11-22T16:18:07.531Z,2.60
2022-11-22T16:20:37.612Z,2.63
2022-11-22T16:23:26.977Z,2.30
2022-11-22T16:26:13.885Z,2.33
2022-11-22T16:28:41.588Z,2.77
2022-11-22T16:31:18.837Z,2.60
2022-11-22T16:33:46.835Z,2.50
2022-11-22T16:36:17.459Z,2.50
2022-11-22T16:38:45.839Z,2.57
2022-11-22T16:41:18.280Z,2.93
2022-11-22T16:43:46.478Z,2.70
2022-11-22T16:46:14.956Z,2.93
2022-11-22T16:48:43.002Z,3.13
2022-11-22T16:51:14.347Z,3.90
2022-11-22T16:53:45.273Z,3.77
2022-11-22T16:56:20.191Z,3.17
2022-11-22T16:58:48.873Z,3.00
2022-11-22T17:01:18.948Z,3.43
2022-11-22T17:03:48.478Z,2.90
2022-11-22T17:06:18.577Z,2.83
2022-11-22T17:08:49.198Z,3.00
2022-11-22T17:11:18.571Z,2.80
2022-11-22T17:13:46.983Z,3.30
2022-11-22T17:16:17.594Z,2.37
2022-11-22T17:18:45.839Z,2.40
2022-11-22T17:21:18.508Z,3.00
2022-11-22T17:23:48.219Z,3.57
2022-11-22T17:26:15.858Z,2.90
2022-11-22T17:28:43.568Z,3.77
2022-11-22T17:31:14.225Z,3.50
2022-11-22T17:33:41.921Z,4.33
2022-11-22T17:36:20.450Z,3.83
2022-11-22T17:38:49.464Z,4.27
2022-11-22T17:41:17.089Z,4.00
2022-11-22T17:43:44.728Z,5.10
2022-11-22T17:46:12.329Z,4.80
2022-11-22T17:48:40.068Z,4.70
2022-11-22T17:51:08.244Z,4.80
2022-11-22T17:53:36.641Z,4.23
2022-11-22T17:56:11.104Z,3.57
2022-11-22T17:58:39.434Z,4.10
2022-11-22T18:01:09.095Z,3.53
2022-11-22T18:03:36.847Z,4.47
2022-11-22T18:06:04.844Z,4.77
2022-11-22T18:08:33.310Z,4.50
2022-11-22T18:11:01.696Z,4.63
2022-11-22T18:13:32.275Z,4.87
2022-11-22T18:16:03.705Z,4.77
2022-11-22T18:21:19.614Z,4.83
2022-11-22T18:23:47.266Z,5.40
2022-11-22T18:31:53.265Z,5.47
2022-11-22T18:34:21.806Z,5.20
2022-11-22T18:36:55.246Z,5.17
2022-11-22T18:39:24.003Z,4.70
2022-11-22T18:41:51.725Z,4.83
2022-11-22T18:44:21.036Z,4.77
2022-11-22T18:46:48.728Z,5.03
2022-11-22T18:49:16.584Z,4.80
2022-11-22T18:51:44.304Z,5.03
2022-11-22T18:54:12.451Z,6.03
2022-11-22T18:56:40.899Z,5.27
2022-11-22T18:59:12.589Z,4.63
2022-11-22T19:01:42.069Z,4.77
2022-11-22T19:04:12.682Z,4.23
2022-11-22T19:06:40.559Z,5.30
2022-11-22T19:09:09.083Z,5.00
2022-11-22T19:11:58.765Z,5.93
2022-11-22T19:14:28.836Z,5.50
2022-11-22T19:16:58.395Z,5.33
2022-11-22T19:19:26.236Z,5.70
2022-11-22T19:21:53.840Z,5.43
2022-11-22T19:24:21.466Z,4.80
2022-11-22T19:26:49.097Z,4.77
2022-11-22T19:29:17.173Z,5.17
2022-11-22T19:31:44.980Z,5.03
2022-11-22T19:34:14.260Z,4.87
2022-11-22T19:36:41.971Z,4.70
2022-11-22T19:39:13.499Z,5.47
2022-11-22T19:41:42.649Z,5.23
2022-11-22T19:44:10.876Z,4.93
2022-11-22T19:46:41.324Z,4.83
2022-11-22T19:49:10.083Z,5.83
2022-11-22T19:51:39.028Z,5.93
2022-11-22T19:54:07.490Z,6.27
2022-11-22T19:56:37.234Z,6.10
2022-11-22T19:59:10.327Z,5.40
2022-11-22T20:01:39.593Z,4.90
2022-11-22T20:04:07.659Z,5.00
2022-11-22T20:06:37.189Z,5.23
2022-11-22T20:09:10.233Z,4.77
2022-11-22T20:11:39.482Z,4.73
2022-11-22T20:14:08.021Z,4.57
2022-11-22T20:16:36.133Z,5.27
2022-11-22T20:19:06.833Z,5.30
2022-11-22T20:21:35.729Z,4.70
2022-11-22T20:24:04.248Z,5.40
2022-11-22T20:26:34.693Z,4.77
2022-11-22T20:29:04.786Z,5.13
2022-11-22T20:31:34.653Z,4.67
2022-11-22T20:34:03.091Z,4.80
2022-11-22T20:36:32.579Z,4.50
2022-11-22T20:39:05.368Z,4.73
2022-11-22T20:41:37.980Z,4.90
2022-11-22T20:44:05.955Z,4.97
2022-11-22T20:46:37.028Z,4.77
2022-11-22T20:49:05.477Z,3.97
2022-11-22T20:51:36.401Z,4.87
2022-11-22T20:54:04.530Z,4.67
2022-11-22T20:56:32.618Z,5.10
2022-11-22T20:59:02.113Z,5.07
2022-11-22T21:01:32.241Z,4.70
2022-11-22T21:04:00.037Z,4.97
2022-11-22T21:06:28.846Z,4.93
2022-11-22T21:08:57.085Z,5.03
2022-11-22T21:11:27.692Z,4.63
2022-11-22T21:13:56.691Z,5.03
2022-11-22T21:16:27.434Z,5.37
2022-11-22T21:18:56.732Z,5.50
2022-11-22T21:21:26.346Z,3.47
2022-11-22T21:23:55.538Z,4.37
2022-11-22T21:26:24.694Z,4.40
2022-11-22T21:28:53.527Z,4.80
2022-11-22T21:31:22.700Z,5.07
2022-11-22T21:33:52.466Z,5.57
2022-11-22T21:36:21.196Z,5.73
2022-11-22T21:38:49.019Z,5.23
2022-11-22T21:44:06.220Z,4.50
2022-11-22T21:46:34.043Z,5.07
2022-11-22T21:49:03.387Z,4.03
2022-11-22T21:51:32.025Z,3.73
2022-11-22T21:54:00.155Z,4.13
2022-11-22T21:56:28.608Z,3.87
2022-11-22T21:58:57.638Z,3.80
2022-11-22T22:01:25.688Z,4.43
2022-11-22T22:03:53.859Z,3.50
2022-11-22T22:06:23.449Z,4.53
2022-11-22T22:08:51.455Z,4.67
2022-11-22T22:11:19.412Z,4.10
2022-11-22T22:13:47.249Z,4.13
2022-11-22T22:16:19.210Z,3.80
2022-11-22T22:18:47.368Z,3.83
2022-11-22T22:21:16.397Z,3.80
2022-11-22T22:23:46.616Z,3.80
2022-11-22T22:26:17.000Z,2.93
2022-11-22T22:28:46.111Z,4.20
2022-11-22T22:31:16.913Z,3.73
2022-11-22T22:33:46.308Z,3.07
2022-11-22T22:36:14.875Z,7.17
2022-11-22T22:38:42.903Z,4.50
2022-11-22T22:41:14.359Z,3.43
2022-11-22T22:43:44.400Z,3.57
2022-11-22T22:46:17.603Z,3.90
2022-11-22T22:48:46.033Z,4.93
2022-11-22T22:51:18.097Z,4.83
2022-11-22T22:53:47.884Z,3.30
2022-11-22T22:56:19.492Z,2.90
2022-11-22T22:58:47.377Z,3.00
2022-11-22T23:01:17.767Z,2.07
2022-11-22T23:03:48.934Z,1.83
2022-11-22T23:06:17.485Z,1.90
2022-11-22T23:08:46.902Z,1.80
2022-11-22T23:11:15.054Z,1.50
2022-11-22T23:13:44.895Z,2.50
2022-11-22T23:16:14.889Z,2.70
2022-11-22T23:18:44.756Z,2.00
2022-11-22T23:21:14.817Z,3.20
2022-11-22T23:23:42.675Z,3.83
2022-11-22T23:26:12.499Z,4.03
2022-11-22T23:28:40.720Z,3.73
2022-11-22T23:31:14.277Z,2.87
2022-11-22T23:33:42.580Z,3.17
2022-11-22T23:36:12.626Z,2.60
2022-11-22T23:38:41.409Z,2.30
2022-11-22T23:41:12.517Z,2.07
2022-11-22T23:43:40.490Z,1.80
2022-11-22T23:46:15.885Z,2.93
2022-11-22T23:48:43.995Z,2.00
2022-11-22T23:51:11.787Z,2.40
2022-11-22T23:53:40.064Z,1.70
2022-11-22T23:56:09.930Z,2.40
2022-11-22T23:58:37.976Z,2.37
